createdAt,value
2023-01-26T00:00:18.964Z,0.00
2023-01-26T00:05:18.952Z,0.00
2023-01-26T00:10:18.983Z,0.00
2023-01-26T00:15:16.031Z,0.00
2023-01-26T00:20:16.011Z,0.00
2023-01-26T00:25:19.026Z,0.00
2023-01-26T00:30:19.068Z,0.00
2023-01-26T00:35:19.020Z,0.00
2023-01-26T00:40:19.029Z,0.00
2023-01-26T00:45:18.978Z,0.00
2023-01-26T00:50:19.014Z,0.01
2023-01-26T00:55:16.053Z,0.01
2023-01-26T01:00:18.999Z,0.01
2023-01-26T01:05:19.003Z,0.01
2023-01-26T01:10:18.959Z,0.01
2023-01-26T01:15:18.975Z,0.01
2023-01-26T01:20:18.987Z,0.02
2023-01-26T01:25:15.870Z,0.03
2023-01-26T01:30:19.044Z,0.04
2023-01-26T01:35:19.073Z,0.05
2023-01-26T01:40:16.052Z,0.06
2023-01-26T01:45:16.002Z,0.06
2023-01-26T01:50:19.103Z,0.06
2023-01-26T01:55:19.038Z,0.08
2023-01-26T02:00:19.049Z,0.09
2023-01-26T02:05:16.052Z,0.10
2023-01-26T02:10:19.022Z,0.10
2023-01-26T02:15:19.188Z,0.10
2023-01-26T02:20:18.995Z,0.10
2023-01-26T02:25:19.044Z,0.09
2023-01-26T02:30:16.045Z,0.08
2023-01-26T02:35:16.070Z,0.07
2023-01-26T02:40:19.050Z,0.06
2023-01-26T02:45:16.070Z,0.06
2023-01-26T02:50:16.203Z,0.05
2023-01-26T02:55:19.061Z,0.03
2023-01-26T03:00:19.092Z,0.02
2023-01-26T03:05:19.083Z,0.02
2023-01-26T03:10:16.084Z,0.03
2023-01-26T03:15:16.180Z,0.03
2023-01-26T03:20:22.953Z,0.02
2023-01-26T03:25:19.167Z,0.04
2023-01-26T03:30:19.185Z,0.04
2023-01-26T03:35:19.025Z,0.05
2023-01-26T03:40:19.122Z,0.05
2023-01-26T03:45:19.081Z,0.05
2023-01-26T03:50:19.047Z,0.06
2023-01-26T03:55:19.061Z,0.06
2023-01-26T04:00:19.071Z,0.07
2023-01-26T04:05:16.087Z,0.07
2023-01-26T04:10:16.180Z,0.06
2023-01-26T04:15:16.107Z,0.07
2023-01-26T04:20:16.109Z,0.08
2023-01-26T04:25:16.111Z,0.06
2023-01-26T04:30:16.271Z,0.07
2023-01-26T04:35:19.129Z,0.07
2023-01-26T04:40:19.101Z,0.07
2023-01-26T04:45:19.102Z,0.08
2023-01-26T04:50:16.209Z,0.08
2023-01-26T04:55:19.079Z,0.09
2023-01-26T05:00:20.405Z,0.08
2023-01-26T05:05:17.415Z,0.08
2023-01-26T05:10:20.375Z,0.09
2023-01-26T05:15:20.402Z,0.08
2023-01-26T05:20:20.361Z,0.08
2023-01-26T05:25:20.355Z,0.09
2023-01-26T05:30:18.447Z,0.08
2023-01-26T05:35:15.205Z,0.08
2023-01-26T05:40:20.391Z,0.08
2023-01-26T05:45:18.423Z,0.08
2023-01-26T05:50:18.441Z,0.07
2023-01-26T05:55:18.388Z,0.07
2023-01-26T06:00:18.411Z,0.07
2023-01-26T06:05:18.411Z,0.06
2023-01-26T06:10:18.388Z,0.06
2023-01-26T06:15:18.396Z,0.07
2023-01-26T06:20:15.401Z,0.06
2023-01-26T06:25:18.438Z,0.07
2023-01-26T06:30:18.359Z,0.09
2023-01-26T06:35:18.389Z,0.10
2023-01-26T06:40:15.510Z,0.12
2023-01-26T06:45:15.422Z,0.13
2023-01-26T06:50:18.442Z,0.15
2023-01-26T06:55:18.397Z,0.17
2023-01-26T07:00:18.446Z,0.19
2023-01-26T07:05:15.444Z,0.21
2023-01-26T07:10:18.439Z,0.22
2023-01-26T07:15:18.468Z,0.22
2023-01-26T07:20:18.579Z,0.24
2023-01-26T07:25:15.526Z,0.24
2023-01-26T07:30:18.459Z,0.25
2023-01-26T07:35:18.478Z,0.26
2023-01-26T07:40:18.423Z,0.26
2023-01-26T07:45:18.404Z,0.26
2023-01-26T07:50:18.507Z,0.26
2023-01-26T07:55:18.402Z,0.24
2023-01-26T08:00:18.439Z,0.24
2023-01-26T08:05:18.490Z,0.24
2023-01-26T08:10:15.460Z,0.24
2023-01-26T08:15:15.339Z,0.24
2023-01-26T08:20:18.477Z,0.23
2023-01-26T08:25:15.492Z,0.22
2023-01-26T08:30:15.559Z,0.20
2023-01-26T08:35:18.659Z,0.18
2023-01-26T08:40:15.541Z,0.18
2023-01-26T08:45:15.501Z,0.17
2023-01-26T08:50:18.503Z,0.17
2023-01-26T08:55:15.345Z,0.18
2023-01-26T09:00:15.511Z,0.17
2023-01-26T09:05:18.512Z,0.17
2023-01-26T09:10:18.468Z,0.15
2023-01-26T09:15:18.468Z,0.15
2023-01-26T09:20:15.571Z,0.16
2023-01-26T09:25:18.487Z,0.16
2023-01-26T09:30:18.573Z,0.16
2023-01-26T09:35:19.083Z,0.15
2023-01-26T09:40:15.547Z,0.14
2023-01-26T09:45:18.489Z,0.13
2023-01-26T09:50:18.509Z,0.12
2023-01-26T09:55:18.719Z,0.10
2023-01-26T10:00:15.560Z,0.09
2023-01-26T10:05:15.548Z,0.07
2023-01-26T10:10:18.506Z,0.07
2023-01-26T10:15:18.557Z,0.06
2023-01-26T10:20:18.533Z,0.04
2023-01-26T10:25:15.555Z,0.03
2023-01-26T10:30:15.558Z,0.02
2023-01-26T10:35:15.569Z,0.02
2023-01-26T10:40:18.845Z,0.01
2023-01-26T10:45:18.532Z,0.01
2023-01-26T10:50:18.578Z,0.00
2023-01-26T10:55:15.620Z,0.00
2023-01-26T11:00:18.566Z,0.00
2023-01-26T11:05:15.660Z,0.01
2023-01-26T11:10:18.550Z,0.01
2023-01-26T11:15:18.609Z,0.01
2023-01-26T11:20:18.586Z,0.01
2023-01-26T11:25:15.572Z,0.01
2023-01-26T11:30:18.559Z,0.02
2023-01-26T11:35:18.625Z,0.04
2023-01-26T11:40:18.598Z,0.06
2023-01-26T11:45:15.636Z,0.06
2023-01-26T11:50:15.636Z,0.06
2023-01-26T11:55:18.636Z,0.06
2023-01-26T12:00:29.482Z,0.06
2023-01-26T12:05:18.587Z,0.05
2023-01-26T12:10:15.571Z,0.05
2023-01-26T12:15:18.585Z,0.05
2023-01-26T12:20:15.567Z,0.05
2023-01-26T12:25:20.221Z,0.05
2023-01-26T12:30:18.727Z,0.05
2023-01-26T12:35:18.620Z,0.03
2023-01-26T12:40:18.567Z,0.01
2023-01-26T12:45:18.769Z,0.01
2023-01-26T12:50:18.618Z,0.01
2023-01-26T12:55:15.642Z,0.01
2023-01-26T13:00:18.623Z,0.01
2023-01-26T13:05:18.628Z,0.01
2023-01-26T13:10:18.578Z,0.01
2023-01-26T13:15:18.625Z,0.01
2023-01-26T13:20:15.642Z,0.01
2023-01-26T13:25:15.529Z,0.01
2023-01-26T13:30:15.406Z,0.00
2023-01-26T13:35:18.635Z,0.00
2023-01-26T13:40:18.655Z,0.00
2023-01-26T13:45:18.714Z,0.00
2023-01-26T13:50:18.617Z,0.00
2023-01-26T13:55:18.659Z,0.00
2023-01-26T14:00:15.646Z,0.00
2023-01-26T14:05:15.478Z,0.00
2023-01-26T14:10:15.687Z,0.00
2023-01-26T14:15:18.658Z,0.00
2023-01-26T14:20:18.712Z,0.00
2023-01-26T14:25:15.626Z,0.00
2023-01-26T14:30:18.775Z,0.00
2023-01-26T14:35:18.645Z,0.00
2023-01-26T14:40:15.704Z,0.00
2023-01-26T14:45:15.655Z,0.00
2023-01-26T14:50:15.664Z,0.00
2023-01-26T14:55:18.669Z,0.00
2023-01-26T15:00:15.750Z,0.00
2023-01-26T15:05:18.702Z,0.00
2023-01-26T15:10:18.650Z,0.00
2023-01-26T15:15:18.663Z,0.00
2023-01-26T15:20:15.669Z,0.00
2023-01-26T15:25:15.666Z,0.00
2023-01-26T15:30:15.930Z,0.00
2023-01-26T15:35:18.666Z,0.00
2023-01-26T15:40:18.651Z,0.00
2023-01-26T15:45:18.661Z,0.00
2023-01-26T15:50:27.430Z,0.00
2023-01-26T15:55:18.666Z,0.00
2023-01-26T16:00:18.635Z,0.00
2023-01-26T16:05:18.683Z,0.00
2023-01-26T16:10:15.758Z,0.00
2023-01-26T16:15:15.713Z,0.00
2023-01-26T16:20:15.756Z,0.00
2023-01-26T16:25:18.739Z,0.00
2023-01-26T16:30:18.648Z,0.00
2023-01-26T16:35:18.657Z,0.00
2023-01-26T16:40:18.782Z,0.00
2023-01-26T16:45:15.697Z,0.00
2023-01-26T16:50:18.771Z,0.00
2023-01-26T16:55:18.698Z,0.00
2023-01-26T17:00:18.704Z,0.00
2023-01-26T17:05:18.677Z,0.00
2023-01-26T17:10:18.748Z,0.00
2023-01-26T17:15:18.685Z,0.00
2023-01-26T17:20:20.000Z,0.00
2023-01-26T17:25:19.088Z,0.00
2023-01-26T17:30:18.752Z,0.00
2023-01-26T17:35:15.760Z,0.00
2023-01-26T17:40:18.719Z,0.00
2023-01-26T17:45:18.699Z,0.00
2023-01-26T17:50:15.757Z,0.00
2023-01-26T17:55:18.717Z,0.00
2023-01-26T18:00:15.825Z,0.00
2023-01-26T18:05:18.781Z,0.00
2023-01-26T18:10:18.789Z,0.00
2023-01-26T18:15:18.685Z,0.00
2023-01-26T18:20:18.760Z,0.00
2023-01-26T18:25:18.705Z,0.00
2023-01-26T18:30:18.720Z,0.00
2023-01-26T18:36:20.830Z,0.00
2023-01-26T18:40:18.748Z,0.00
2023-01-26T18:45:15.569Z,0.00
2023-01-26T18:50:18.835Z,0.00
2023-01-26T18:55:15.767Z,0.00
2023-01-26T19:00:18.944Z,0.00
2023-01-26T19:05:15.825Z,0.00
2023-01-26T19:10:15.900Z,0.00
2023-01-26T19:15:18.750Z,0.00
2023-01-26T19:20:18.738Z,0.00
2023-01-26T19:25:18.785Z,0.00
2023-01-26T19:30:18.752Z,0.00
2023-01-26T19:35:16.199Z,0.00
2023-01-26T19:40:15.818Z,0.00
2023-01-26T19:45:18.825Z,0.00
2023-01-26T19:50:15.808Z,0.00
2023-01-26T19:55:15.803Z,0.00
2023-01-26T20:00:15.801Z,0.00
2023-01-26T20:05:18.803Z,0.00
2023-01-26T20:10:15.869Z,0.00
2023-01-26T20:15:15.848Z,0.00
2023-01-26T20:20:18.905Z,0.00
2023-01-26T20:25:18.833Z,0.00
2023-01-26T20:30:15.819Z,0.00
2023-01-26T20:35:18.807Z,0.00
2023-01-26T20:40:15.845Z,0.00
2023-01-26T20:45:18.826Z,0.00
2023-01-26T20:50:18.805Z,0.00
2023-01-26T20:55:18.755Z,0.00
2023-01-26T21:00:18.801Z,0.00
2023-01-26T21:05:18.908Z,0.00
2023-01-26T21:10:15.856Z,0.00
2023-01-26T21:15:15.812Z,0.00
2023-01-26T21:20:18.824Z,0.00
2023-01-26T21:25:18.808Z,0.00
2023-01-26T21:30:18.819Z,0.00
2023-01-26T21:35:15.920Z,0.00
2023-01-26T21:40:18.793Z,0.00
2023-01-26T21:45:18.914Z,0.00
2023-01-26T21:50:18.806Z,0.00
2023-01-26T21:55:18.867Z,0.00
2023-01-26T22:00:15.731Z,0.00
2023-01-26T22:05:18.924Z,0.00
2023-01-26T22:10:15.900Z,0.00
2023-01-26T22:15:18.879Z,0.00
2023-01-26T22:20:18.812Z,0.00
2023-01-26T22:25:19.138Z,0.00
2023-01-26T22:30:15.896Z,0.00
2023-01-26T22:35:19.034Z,0.00
2023-01-26T22:40:18.894Z,0.00
2023-01-26T22:45:18.889Z,0.00
2023-01-26T22:50:15.909Z,0.00
2023-01-26T22:55:18.891Z,0.00
2023-01-26T23:00:16.222Z,0.00
2023-01-26T23:05:18.863Z,0.00
2023-01-26T23:10:18.911Z,0.00
2023-01-26T23:15:16.238Z,0.00
2023-01-26T23:20:15.957Z,0.00
2023-01-26T23:25:18.863Z,0.00
2023-01-26T23:30:18.894Z,0.00
2023-01-26T23:35:18.851Z,0.00
2023-01-26T23:40:18.865Z,0.00
2023-01-26T23:45:18.847Z,0.00
2023-01-26T23:50:18.849Z,0.00
2023-01-26T23:55:18.886Z,0.00
